Time;durP1;ratioP1;P1;durP2;ratioP2;P2;SDS_P1;SDS_P2;PMS_P1;PMS_P2;Temp;Humidity;BMP_temperature;BMP_pressure;BME280_temperature;BME280_humidity;BME280_pressure;Samples;Min_cycle;Max_cycle;Signal;HPM_P1;HPM_P2
2022/03/19 00:02:23;;;;;;;;;;;;;;;;;;5011447;28;20309;-70
2022/03/19 00:04:49;;;;;;;;;;;;;;;;;;5009041;28;19923;-70
2022/03/19 00:07:15;;;;;;;;;;;;;;;;;;5012062;28;19917;-70
2022/03/19 00:09:41;;;;;;;;;;;;;;;;;;5008041;28;20177;-70
2022/03/19 00:12:07;;;;;;;;;;;;;;;;;;5010971;28;20469;-70
2022/03/19 00:14:33;;;;;;;;;;;;;;;;;;5008321;28;19929;-70
2022/03/19 00:16:59;;;;;;;;;;;;;;;;;;5010196;28;20548;-70
2022/03/19 00:19:27;;;;;;;;;;;;;;;;;;4994028;28;19940;-70
2022/03/19 00:21:53;;;;;;;;;;;;;;;;;;5013703;28;19940;-70
2022/03/19 00:24:19;;;;;;;;;;;;;;;;;;5014712;28;19956;-70
2022/03/19 00:26:45;;;;;;;;;;;;;;;;;;5009895;28;21859;-70
2022/03/19 00:29:11;;;;;;;;;;;;;;;;;;5008685;28;19932;-70
2022/03/19 00:31:37;;;;;;;;;;;;;;;;;;5009967;28;20267;-70
2022/03/19 00:34:03;;;;;;;;;;;;;;;;;;5010047;28;19921;-70
2022/03/19 00:36:29;;;;;;;;;;;;;;;;;;5006639;28;19916;-70
2022/03/19 00:38:55;;;;;;;;;;;;;;;;;;4997959;28;19921;-70
2022/03/19 00:41:21;;;;;;;;;;;;;;;;;;5013733;28;20465;-70
2022/03/19 00:43:47;;;;;;;;;;;;;;;;;;4996121;28;19912;-70
2022/03/19 00:46:13;;;;;;;;;;;;;;;;;;5007645;28;20006;-68
2022/03/19 00:48:39;;;;;;;;;;;;;;;;;;5012049;28;20437;-70
2022/03/19 00:51:05;;;;;;;;;;;;;;;;;;5011566;28;19917;-70
2022/03/19 00:53:31;;;;;;;;;;;;;;;;;;5010526;28;19920;-70
2022/03/19 00:55:57;;;;;;;;;;;;;;;;;;5013819;28;20340;-69
2022/03/19 00:58:23;;;;;;;;;;;;;;;;;;5012198;28;20699;-70
2022/03/19 01:00:49;;;;;;;;;;;;;;;;;;5011106;28;19917;-70
2022/03/19 01:03:15;;;;;;;;;;;;;;;;;;5015165;28;19917;-70
2022/03/19 01:05:42;;;;;;;;;;;;;;;;;;5014493;28;19917;-70
2022/03/19 01:08:08;;;;;;;;;;;;;;;;;;5002231;28;20246;-71
2022/03/19 01:10:35;;;;;;;;;;;;;;;;;;5013771;28;20050;-71
2022/03/19 01:13:01;;;;;;;;;;;;;;;;;;5021829;28;19935;-70
2022/03/19 01:15:27;;;;;;;;;;;;;;;;;;5017196;28;19925;-71
2022/03/19 01:17:53;;;;;;;;;;;;;;;;;;5020189;28;20290;-70
2022/03/19 01:20:19;;;;;;;;;;;;;;;;;;5024036;28;20370;-70
2022/03/19 01:22:45;;;;;;;;;;;;;;;;;;5016543;28;19963;-71
2022/03/19 01:25:10;;;;;;;;;;;;;;;;;;5014770;28;19917;-72
2022/03/19 01:27:36;;;;;;;;;;;;;;;;;;5017012;28;19916;-71
2022/03/19 01:30:02;;;;;;;;;;;;;;;;;;5016554;28;19923;-72
2022/03/19 01:32:28;;;;;;;;;;;;;;;;;;5017778;28;19921;-70
2022/03/19 01:34:54;;;;;;;;;;;;;;;;;;5019289;28;19929;-70
2022/03/19 01:37:20;;;;;;;;;;;;;;;;;;5021478;28;19928;-73
2022/03/19 01:39:46;;;;;;;;;;;;;;;;;;5019456;28;19964;-70
2022/03/19 01:42:12;;;;;;;;;;;;;;;;;;5015156;28;20355;-70
2022/03/19 01:44:38;;;;;;;;;;;;;;;;;;5018466;28;20441;-70
2022/03/19 01:47:06;;;;;;;;;;;;;;;;;;5017506;28;19916;-70
2022/03/19 01:49:32;;;;;;;;;;;;;;;;;;5001356;28;20248;-70
2022/03/19 01:51:58;;;;;;;;;;;;;;;;;;5018757;28;20027;-70
2022/03/19 01:54:24;;;;;;;;;;;;;;;;;;5018160;28;20606;-70
2022/03/19 01:56:50;;;;;;;;;;;;;;;;;;5015160;28;20043;-71
2022/03/19 01:59:16;;;;;;;;;;;;;;;;;;5000913;28;19920;-70
2022/03/19 02:01:42;;;;;;;;;;;;;;;;;;5008807;28;20724;-71
2022/03/19 02:04:08;;;;;;;;;;;;;;;;;;5000319;28;19967;-71
2022/03/19 02:06:34;;;;;;;;;;;;;;;;;;5012235;28;19917;-71
2022/03/19 02:09:00;;;;;;;;;;;;;;;;;;4998549;28;20431;-72
2022/03/19 02:11:26;;;;;;;;;;;;;;;;;;4994808;28;20224;-71
2022/03/19 02:13:52;;;;;;;;;;;;;;;;;;5008684;28;20687;-72
2022/03/19 02:16:18;;;;;;;;;;;;;;;;;;5017237;28;20339;-72
2022/03/19 02:18:44;;;;;;;;;;;;;;;;;;5012645;28;19921;-72
2022/03/19 02:21:10;;;;;;;;;;;;;;;;;;5017059;28;19963;-72
2022/03/19 02:26:21;;;;;;;;;;;;;;;;;;5022575;28;19923;-72
2022/03/19 02:28:47;;;;;;;;;;;;;;;;;;4992835;28;19916;-72
2022/03/19 02:31:13;;;;;;;;;;;;;;;;;;4999911;28;19916;-72
2022/03/19 02:33:39;;;;;;;;;;;;;;;;;;5014197;28;19921;-71
2022/03/19 02:36:05;;;;;;;;;;;;;;;;;;5018919;28;19924;-71
2022/03/19 02:38:31;;;;;;;;;;;;;;;;;;5012135;28;20273;-70
2022/03/19 02:40:57;;;;;;;;;;;;;;;;;;5021685;28;20274;-71
2022/03/19 02:43:23;;;;;;;;;;;;;;;;;;5016234;28;19970;-71
2022/03/19 02:45:49;;;;;;;;;;;;;;;;;;5011303;28;20283;-71
2022/03/19 02:48:15;;;;;;;;;;;;;;;;;;5021009;28;19917;-71
2022/03/19 02:50:41;;;;;;;;;;;;;;;;;;5011168;28;19917;-71
2022/03/19 02:53:07;;;;;;;;;;;;;;;;;;5017976;28;19917;-71
2022/03/19 02:55:33;;;;;;;;;;;;;;;;;;5014220;28;19932;-71
2022/03/19 02:57:59;;;;;;;;;;;;;;;;;;5017299;28;19917;-71
2022/03/19 03:00:25;;;;;;;;;;;;;;;;;;5020943;28;20475;-70
2022/03/19 03:02:51;;;;;;;;;;;;;;;;;;5018332;28;19931;-71
2022/03/19 03:05:17;;;;;;;;;;;;;;;;;;5001720;28;19917;-71
2022/03/19 03:07:43;;;;;;;;;;;;;;;;;;5012869;28;19978;-71
2022/03/19 03:10:09;;;;;;;;;;;;;;;;;;5016445;28;19936;-71
2022/03/19 03:12:35;;;;;;;;;;;;;;;;;;4997069;28;20209;-71
2022/03/19 03:15:01;;;;;;;;;;;;;;;;;;5019158;28;19929;-71
2022/03/19 03:17:27;;;;;;;;;;;;;;;;;;5013014;28;20729;-71
2022/03/19 03:19:53;;;;;;;;;;;;;;;;;;5014854;28;19921;-71
2022/03/19 03:22:19;;;;;;;;;;;;;;;;;;5015168;28;19989;-71
2022/03/19 03:24:45;;;;;;;;;;;;;;;;;;5011472;28;21224;-71
2022/03/19 03:27:11;;;;;;;;;;;;;;;;;;5015644;28;19943;-71
2022/03/19 03:29:37;;;;;;;;;;;;;;;;;;5011064;28;19917;-71
2022/03/19 03:32:04;;;;;;;;;;;;;;;;;;5018503;28;19929;-71
2022/03/19 03:34:30;;;;;;;;;;;;;;;;;;5011342;28;19920;-71
2022/03/19 03:36:56;;;;;;;;;;;;;;;;;;5017008;28;20999;-71
2022/03/19 03:39:22;;;;;;;;;;;;;;;;;;5004786;28;20466;-71
2022/03/19 03:41:48;;;;;;;;;;;;;;;;;;5007287;28;20488;-71
2022/03/19 03:44:14;;;;;;;;;;;;;;;;;;5017298;28;20464;-71
2022/03/19 03:46:40;;;;;;;;;;;;;;;;;;5016506;28;19917;-71
2022/03/19 03:49:07;;;;;;;;;;;;;;;;;;5024585;28;19924;-71
2022/03/19 03:51:33;;;;;;;;;;;;;;;;;;5017683;28;19953;-71
2022/03/19 03:53:59;;;;;;;;;;;;;;;;;;5020307;28;19917;-71
2022/03/19 03:56:25;;;;;;;;;;;;;;;;;;5023857;28;20543;-71
2022/03/19 03:58:51;;;;;;;;;;;;;;;;;;5023036;28;19916;-71
2022/03/19 04:01:17;;;;;;;;;;;;;;;;;;5023720;28;19924;-71
2022/03/19 04:03:43;;;;;;;;;;;;;;;;;;5015125;28;19920;-70
2022/03/19 04:06:08;;;;;;;;;;;;;;;;;;5026737;28;19916;-70
2022/03/19 04:08:34;;;;;;;;;;;;;;;;;;5005048;28;19928;-71
2022/03/19 04:11:00;;;;;;;;;;;;;;;;;;5024176;28;19921;-71
2022/03/19 04:13:26;;;;;;;;;;;;;;;;;;5020953;28;19916;-71
2022/03/19 04:15:52;;;;;;;;;;;;;;;;;;5018057;28;20002;-71
2022/03/19 04:18:18;;;;;;;;;;;;;;;;;;5020422;28;19916;-71
2022/03/19 04:20:44;;;;;;;;;;;;;;;;;;5018154;28;19916;-71
2022/03/19 04:23:10;;;;;;;;;;;;;;;;;;5015649;28;20488;-71
2022/03/19 04:25:36;;;;;;;;;;;;;;;;;;5019492;28;19922;-71
2022/03/19 04:28:03;;;;;;;;;;;;;;;;;;5000219;28;19956;-70
2022/03/19 04:30:29;;;;;;;;;;;;;;;;;;5014635;28;19921;-72
2022/03/19 04:32:54;;;;;;;;;;;;;;;;;;5018882;28;19917;-71
2022/03/19 04:38:05;;;;;;;;;;;;;;;;;;5025170;28;19924;-71
2022/03/19 04:40:31;;;;;;;;;;;;;;;;;;5024855;28;19920;-71
2022/03/19 04:42:57;;;;;;;;;;;;;;;;;;5028095;28;19963;-71
2022/03/19 04:45:24;;;;;;;;;;;;;;;;;;5023887;28;20389;-71
2022/03/19 04:47:50;;;;;;;;;;;;;;;;;;5007331;28;19917;-71
2022/03/19 04:50:16;;;;;;;;;;;;;;;;;;5022251;28;20339;-71
2022/03/19 04:52:42;;;;;;;;;;;;;;;;;;5022501;28;19917;-71
2022/03/19 04:55:08;;;;;;;;;;;;;;;;;;5030517;28;20404;-71
2022/03/19 04:57:34;;;;;;;;;;;;;;;;;;5024878;28;20342;-71
2022/03/19 05:00:00;;;;;;;;;;;;;;;;;;5027330;28;19913;-71
2022/03/19 05:02:26;;;;;;;;;;;;;;;;;;5023122;28;20454;-71
2022/03/19 05:04:52;;;;;;;;;;;;;;;;;;5025903;28;20281;-71
2022/03/19 05:07:21;;;;;;;;;;;;;;;;;;5027196;28;20458;-71
2022/03/19 05:12:39;;;;;;;;;;;;;;;;;;5008235;28;19924;-71
2022/03/19 05:15:05;;;;;;;;;;;;;;;;;;5031233;28;19924;-71
2022/03/19 05:17:31;;;;;;;;;;;;;;;;;;5029506;28;20424;-71
2022/03/19 05:19:57;;;;;;;;;;;;;;;;;;5022952;28;19916;-71
2022/03/19 05:22:23;;;;;;;;;;;;;;;;;;5025681;28;20385;-71
2022/03/19 05:24:49;;;;;;;;;;;;;;;;;;5020472;28;20315;-71
2022/03/19 05:27:16;;;;;;;;;;;;;;;;;;5025385;28;19967;-71
2022/03/19 05:29:42;;;;;;;;;;;;;;;;;;5022487;28;19917;-71
2022/03/19 05:32:08;;;;;;;;;;;;;;;;;;5024084;28;19917;-71
2022/03/19 05:34:34;;;;;;;;;;;;;;;;;;5025784;28;19931;-71
2022/03/19 05:37:00;;;;;;;;;;;;;;;;;;5003835;28;19960;-71
2022/03/19 05:39:26;;;;;;;;;;;;;;;;;;5019990;28;20311;-71
2022/03/19 05:41:52;;;;;;;;;;;;;;;;;;5020305;28;20019;-71
2022/03/19 05:44:18;;;;;;;;;;;;;;;;;;5006826;28;19963;-71
2022/03/19 05:46:44;;;;;;;;;;;;;;;;;;5003315;28;19944;-71
2022/03/19 05:49:11;;;;;;;;;;;;;;;;;;5025988;28;20544;-71
2022/03/19 05:51:36;;;;;;;;;;;;;;;;;;5024126;28;19921;-71
2022/03/19 05:54:02;;;;;;;;;;;;;;;;;;5025110;28;19924;-71
2022/03/19 05:56:28;;;;;;;;;;;;;;;;;;5026644;28;19956;-71
2022/03/19 05:58:55;;;;;;;;;;;;;;;;;;5024020;28;20014;-71
2022/03/19 06:01:26;;;;;;;;;;;;;;;;;;5025053;28;19917;-71
2022/03/19 06:03:52;;;;;;;;;;;;;;;;;;5026229;28;19917;-69
2022/03/19 06:06:17;;;;;;;;;;;;;;;;;;5021649;28;19947;-71
2022/03/19 06:08:44;;;;;;;;;;;;;;;;;;5021094;28;19943;-71
2022/03/19 06:11:10;;;;;;;;;;;;;;;;;;5009436;28;19917;-71
2022/03/19 06:13:36;;;;;;;;;;;;;;;;;;5003068;28;20167;-69
2022/03/19 06:16:02;;;;;;;;;;;;;;;;;;5023121;28;19928;-71
2022/03/19 06:18:28;;;;;;;;;;;;;;;;;;5006325;28;20260;-70
2022/03/19 06:20:56;;;;;;;;;;;;;;;;;;5006755;28;19923;-71
2022/03/19 06:23:22;;;;;;;;;;;;;;;;;;5003095;28;19917;-70
2022/03/19 06:25:48;;;;;;;;;;;;;;;;;;5007955;28;20062;-71
2022/03/19 06:28:14;;;;;;;;;;;;;;;;;;5022869;28;19917;-70
2022/03/19 06:30:40;;;;;;;;;;;;;;;;;;5021806;28;19917;-70
2022/03/19 06:33:06;;;;;;;;;;;;;;;;;;5027210;28;19960;-70
2022/03/19 06:38:16;;;;;;;;;;;;;;;;;;5027209;28;19939;-71
2022/03/19 06:40:42;;;;;;;;;;;;;;;;;;5022731;28;19925;-70
2022/03/19 06:43:08;;;;;;;;;;;;;;;;;;5027191;28;19923;-70
2022/03/19 06:45:34;;;;;;;;;;;;;;;;;;5023816;28;19962;-70
2022/03/19 06:48:00;;;;;;;;;;;;;;;;;;5023777;28;19917;-70
2022/03/19 06:50:26;;;;;;;;;;;;;;;;;;5024325;28;20386;-70
2022/03/19 06:52:52;;;;;;;;;;;;;;;;;;5002429;28;19917;-69
2022/03/19 06:55:18;;;;;;;;;;;;;;;;;;5025362;28;19973;-70
2022/03/19 06:57:44;;;;;;;;;;;;;;;;;;5006976;28;19916;-70
2022/03/19 07:00:10;;;;;;;;;;;;;;;;;;5027669;28;20091;-70
2022/03/19 07:02:36;;;;;;;;;;;;;;;;;;5018340;28;19960;-70
2022/03/19 07:05:02;;;;;;;;;;;;;;;;;;5019807;28;19983;-70
2022/03/19 07:07:28;;;;;;;;;;;;;;;;;;5022771;28;19944;-71
2022/03/19 07:09:54;;;;;;;;;;;;;;;;;;5030482;28;19924;-71
2022/03/19 07:12:20;;;;;;;;;;;;;;;;;;5025249;28;19921;-71
2022/03/19 07:14:46;;;;;;;;;;;;;;;;;;5000657;28;20378;-70
2022/03/19 07:17:12;;;;;;;;;;;;;;;;;;5025813;28;19987;-71
2022/03/19 07:19:38;;;;;;;;;;;;;;;;;;5018712;28;20275;-70
2022/03/19 07:22:04;;;;;;;;;;;;;;;;;;5008221;28;19917;-70
2022/03/19 07:24:30;;;;;;;;;;;;;;;;;;5018176;28;20010;-70
2022/03/19 07:26:56;;;;;;;;;;;;;;;;;;5021560;28;19917;-70
2022/03/19 07:29:22;;;;;;;;;;;;;;;;;;5023023;28;19917;-70
2022/03/19 07:31:48;;;;;;;;;;;;;;;;;;5023740;28;19917;-70
2022/03/19 07:34:15;;;;;;;;;;;;;;;;;;5022192;28;19921;-70
2022/03/19 07:36:43;;;;;;;;;;;;;;;;;;5021834;28;19928;-70
2022/03/19 07:39:09;;;;;;;;;;;;;;;;;;5023728;28;19917;-70
2022/03/19 07:41:48;;;;;;;;;;;;;;;;;;5019885;28;20265;-70
2022/03/19 07:44:14;;;;;;;;;;;;;;;;;;5004653;28;19939;-71
2022/03/19 07:46:42;;;;;;;;;;;;;;;;;;5016308;28;20438;-71
2022/03/19 07:49:08;;;;;;;;;;;;;;;;;;5018816;28;20031;-70
2022/03/19 07:51:34;;;;;;;;;;;;;;;;;;5017414;28;20262;-71
2022/03/19 07:54:00;;;;;;;;;;;;;;;;;;5024878;28;20313;-71
2022/03/19 07:56:26;;;;;;;;;;;;;;;;;;5020289;28;19948;-71
2022/03/19 07:58:52;;;;;;;;;;;;;;;;;;5024104;28;19924;-71
2022/03/19 08:01:18;;;;;;;;;;;;;;;;;;5023351;28;19959;-71
2022/03/19 08:03:44;;;;;;;;;;;;;;;;;;5012371;28;19921;-71
2022/03/19 08:06:10;;;;;;;;;;;;;;;;;;5028254;28;19994;-71
2022/03/19 08:08:37;;;;;;;;;;;;;;;;;;5000710;28;19925;-71
2022/03/19 08:11:03;;;;;;;;;;;;;;;;;;5006682;28;20012;-72
2022/03/19 08:13:29;;;;;;;;;;;;;;;;;;5002288;28;20404;-71
2022/03/19 08:15:55;;;;;;;;;;;;;;;;;;5005829;28;19936;-72
2022/03/19 08:18:21;;;;;;;;;;;;;;;;;;4999866;28;19918;-71
2022/03/19 08:20:47;;;;;;;;;;;;;;;;;;4999667;28;19923;-71
2022/03/19 08:23:13;;;;;;;;;;;;;;;;;;5006278;28;19918;-70
2022/03/19 08:25:40;;;;;;;;;;;;;;;;;;4997639;28;19917;-71
2022/03/19 08:28:06;;;;;;;;;;;;;;;;;;5006952;28;19918;-71
2022/03/19 08:30:32;;;;;;;;;;;;;;;;;;4997376;28;19924;-71
2022/03/19 08:32:58;;;;;;;;;;;;;;;;;;4997236;28;20271;-71
2022/03/19 08:35:24;;;;;;;;;;;;;;;;;;4997699;28;19971;-70
2022/03/19 08:40:15;;;;;;;;;;;;;;;;;;4999555;28;19952;-70
2022/03/19 08:40:36;;;;;;;;;;;;;;;;;;5001833;28;19927;-71
2022/03/19 08:43:02;;;;;;;;;;;;;;;;;;5002777;28;19932;-72
2022/03/19 08:45:28;;;;;;;;;;;;;;;;;;5008111;28;20008;-72
2022/03/19 08:47:54;;;;;;;;;;;;;;;;;;4998883;28;19917;-72
2022/03/19 08:50:21;;;;;;;;;;;;;;;;;;5007512;28;19975;-72
2022/03/19 08:52:47;;;;;;;;;;;;;;;;;;5003151;28;20290;-72
2022/03/19 08:55:13;;;;;;;;;;;;;;;;;;5007251;28;19921;-71
2022/03/19 08:57:39;;;;;;;;;;;;;;;;;;5004465;28;20254;-71
2022/03/19 09:00:05;;;;;;;;;;;;;;;;;;5010879;28;19961;-72
2022/03/19 09:02:31;;;;;;;;;;;;;;;;;;5002279;28;19917;-71
2022/03/19 09:04:57;;;;;;;;;;;;;;;;;;4999200;28;20343;-71
2022/03/19 09:07:23;;;;;;;;;;;;;;;;;;4930278;28;2173808;-71
2022/03/19 09:09:52;;;;;;;;;;;;;;;;;;5020347;28;19924;-71
2022/03/19 09:12:18;;;;;;;;;;;;;;;;;;5020124;28;19970;-70
2022/03/19 09:14:44;;;;;;;;;;;;;;;;;;5009347;28;19921;-70
2022/03/19 09:17:10;;;;;;;;;;;;;;;;;;5021881;28;19917;-71
2022/03/19 09:19:37;;;;;;;;;;;;;;;;;;5010054;28;20449;-71
2022/03/19 09:22:03;;;;;;;;;;;;;;;;;;5024998;28;19956;-71
2022/03/19 09:24:29;;;;;;;;;;;;;;;;;;5017188;28;20341;-71
2022/03/19 09:26:55;;;;;;;;;;;;;;;;;;5013605;28;20225;-71
2022/03/19 09:29:21;;;;;;;;;;;;;;;;;;5009557;28;19917;-71
2022/03/19 09:31:47;;;;;;;;;;;;;;;;;;5021541;28;20182;-71
2022/03/19 09:34:13;;;;;;;;;;;;;;;;;;5023216;28;20032;-70
2022/03/19 09:36:41;;;;;;;;;;;;;;;;;;5011881;28;19917;-70
2022/03/19 09:39:07;;;;;;;;;;;;;;;;;;5026509;28;20311;-70
2022/03/19 09:41:33;;;;;;;;;;;;;;;;;;5025183;28;19921;-70
2022/03/19 09:43:59;;;;;;;;;;;;;;;;;;5028694;28;20305;-70
2022/03/19 09:46:26;;;;;;;;;;;;;;;;;;5025056;28;20182;-71
2022/03/19 09:48:53;;;;;;;;;;;;;;;;;;5027380;28;19994;-70
2022/03/19 09:51:19;;;;;;;;;;;;;;;;;;5027797;28;20317;-70
2022/03/19 09:53:45;;;;;;;;;;;;;;;;;;5025338;28;19916;-71
2022/03/19 09:56:11;;;;;;;;;;;;;;;;;;5026917;28;19924;-71
2022/03/19 09:58:37;;;;;;;;;;;;;;;;;;5016573;28;20385;-70
2022/03/19 10:01:03;;;;;;;;;;;;;;;;;;5014195;28;19917;-70
2022/03/19 10:03:29;;;;;;;;;;;;;;;;;;5025897;28;20020;-70
2022/03/19 10:08:40;;;;;;;;;;;;;;;;;;5020744;28;20225;-70
2022/03/19 10:11:06;;;;;;;;;;;;;;;;;;5021684;28;19917;-72
2022/03/19 10:13:32;;;;;;;;;;;;;;;;;;5015519;28;20391;-70
2022/03/19 10:15:58;;;;;;;;;;;;;;;;;;5029107;28;19921;-71
2022/03/19 10:18:23;;;;;;;;;;;;;;;;;;5015882;28;19916;-71
2022/03/19 10:20:53;;;;;;;;;;;;;;;;;;5022771;28;20215;-71
2022/03/19 10:23:21;;;;;;;;;;;;;;;;;;5025339;28;19916;-70
2022/03/19 10:25:47;;;;;;;;;;;;;;;;;;5021891;28;19924;-70
2022/03/19 10:28:13;;;;;;;;;;;;;;;;;;5019686;28;19917;-71
2022/03/19 10:30:39;;;;;;;;;;;;;;;;;;5022883;28;19924;-71
2022/03/19 10:33:05;;;;;;;;;;;;;;;;;;5017970;28;20325;-71
2022/03/19 10:35:31;;;;;;;;;;;;;;;;;;5022369;28;20457;-70
2022/03/19 10:37:57;;;;;;;;;;;;;;;;;;5003816;28;19931;-70
2022/03/19 10:40:23;;;;;;;;;;;;;;;;;;5024964;28;19917;-70
2022/03/19 10:42:49;;;;;;;;;;;;;;;;;;5004688;28;19969;-70
2022/03/19 10:45:15;;;;;;;;;;;;;;;;;;5021526;28;19928;-70
2022/03/19 10:47:41;;;;;;;;;;;;;;;;;;5007531;28;19920;-70
2022/03/19 10:50:07;;;;;;;;;;;;;;;;;;5024918;28;19913;-70
2022/03/19 10:52:33;;;;;;;;;;;;;;;;;;5008368;28;19921;-71
2022/03/19 10:55:03;;;;;;;;;;;;;;;;;;5015336;28;19968;-66
2022/03/19 10:57:29;;;;;;;;;;;;;;;;;;5011623;28;19925;-66
2022/03/19 10:59:55;;;;;;;;;;;;;;;;;;5027632;28;19924;-65
2022/03/19 11:02:21;;;;;;;;;;;;;;;;;;5018441;28;20373;-65
2022/03/19 11:04:47;;;;;;;;;;;;;;;;;;5016745;28;19921;-66
2022/03/19 11:07:13;;;;;;;;;;;;;;;;;;5023686;28;19921;-65
2022/03/19 11:09:39;;;;;;;;;;;;;;;;;;5013769;28;20202;-65
2022/03/19 11:12:07;;;;;;;;;;;;;;;;;;5004056;28;19957;-66
2022/03/19 11:14:33;;;;;;;;;;;;;;;;;;5015472;28;20453;-65
2022/03/19 11:19:44;;;;;;;;;;;;;;;;;;5017912;28;20039;-66
2022/03/19 11:22:10;;;;;;;;;;;;;;;;;;5020789;28;19917;-66
2022/03/19 11:24:35;;;;;;;;;;;;;;;;;;5024361;28;20426;-66
2022/03/19 11:27:01;;;;;;;;;;;;;;;;;;5020534;28;19917;-65
2022/03/19 11:29:27;;;;;;;;;;;;;;;;;;5018278;28;19971;-66
2022/03/19 11:31:54;;;;;;;;;;;;;;;;;;5027390;28;19979;-65
2022/03/19 11:34:19;;;;;;;;;;;;;;;;;;5027934;28;19924;-65
2022/03/19 11:36:45;;;;;;;;;;;;;;;;;;5014927;28;23640;-65
2022/03/19 11:39:11;;;;;;;;;;;;;;;;;;5015533;28;19921;-67
2022/03/19 11:41:37;;;;;;;;;;;;;;;;;;5016196;28;19939;-65
2022/03/19 11:44:03;;;;;;;;;;;;;;;;;;5022532;28;20287;-66
2022/03/19 11:46:29;;;;;;;;;;;;;;;;;;5018680;28;19917;-67
2022/03/19 11:48:55;;;;;;;;;;;;;;;;;;5006865;28;19956;-65
2022/03/19 11:51:24;;;;;;;;;;;;;;;;;;5017304;28;20331;-66
2022/03/19 11:53:50;;;;;;;;;;;;;;;;;;5011167;28;20012;-66
2022/03/19 11:56:19;;;;;;;;;;;;;;;;;;5011066;28;19920;-66
2022/03/19 11:58:45;;;;;;;;;;;;;;;;;;5010530;28;19917;-66
2022/03/19 12:01:11;;;;;;;;;;;;;;;;;;5020916;28;19917;-66
2022/03/19 12:03:37;;;;;;;;;;;;;;;;;;5013424;28;19948;-65
2022/03/19 12:06:03;;;;;;;;;;;;;;;;;;5021928;28;19994;-66
2022/03/19 12:08:31;;;;;;;;;;;;;;;;;;5000974;28;19924;-67
2022/03/19 12:10:58;;;;;;;;;;;;;;;;;;5019875;28;19925;-65
2022/03/19 12:13:24;;;;;;;;;;;;;;;;;;5023319;28;19935;-66
2022/03/19 12:15:50;;;;;;;;;;;;;;;;;;5009879;28;19928;-66
2022/03/19 12:18:16;;;;;;;;;;;;;;;;;;5018750;28;20385;-66
2022/03/19 12:20:41;;;;;;;;;;;;;;;;;;5015619;28;19956;-66
2022/03/19 12:23:07;;;;;;;;;;;;;;;;;;5004148;28;19917;-66
2022/03/19 12:25:33;;;;;;;;;;;;;;;;;;4997340;28;19921;-66
2022/03/19 12:27:59;;;;;;;;;;;;;;;;;;5016098;28;19917;-66
2022/03/19 12:30:25;;;;;;;;;;;;;;;;;;5017758;28;20397;-66
2022/03/19 12:32:54;;;;;;;;;;;;;;;;;;5014871;28;19917;-66
2022/03/19 12:35:20;;;;;;;;;;;;;;;;;;5017291;28;20612;-67
2022/03/19 12:37:46;;;;;;;;;;;;;;;;;;5013595;28;20567;-66
2022/03/19 12:40:12;;;;;;;;;;;;;;;;;;5016158;28;19921;-67
2022/03/19 12:42:42;;;;;;;;;;;;;;;;;;4998238;28;19931;-66
2022/03/19 12:45:08;;;;;;;;;;;;;;;;;;5015899;28;19920;-67
2022/03/19 12:47:33;;;;;;;;;;;;;;;;;;5015914;28;20249;-67
2022/03/19 12:49:59;;;;;;;;;;;;;;;;;;5017531;28;19917;-66
2022/03/19 12:52:26;;;;;;;;;;;;;;;;;;5017394;28;19924;-66
2022/03/19 12:54:55;;;;;;;;;;;;;;;;;;5022769;28;20333;-66
2022/03/19 12:57:24;;;;;;;;;;;;;;;;;;5000316;28;19974;-66
2022/03/19 12:59:51;;;;;;;;;;;;;;;;;;5016303;28;19979;-67
2022/03/19 13:02:17;;;;;;;;;;;;;;;;;;5026893;28;20275;-66
2022/03/19 13:04:43;;;;;;;;;;;;;;;;;;5026590;28;19974;-66
2022/03/19 13:07:09;;;;;;;;;;;;;;;;;;5021853;28;19921;-66
2022/03/19 13:09:35;;;;;;;;;;;;;;;;;;5019484;28;20382;-66
2022/03/19 13:12:01;;;;;;;;;;;;;;;;;;5024238;28;20379;-66
2022/03/19 13:14:28;;;;;;;;;;;;;;;;;;5011700;28;19944;-64
2022/03/19 13:16:55;;;;;;;;;;;;;;;;;;5018280;28;20290;-66
2022/03/19 13:19:21;;;;;;;;;;;;;;;;;;5011400;28;19943;-66
2022/03/19 13:21:49;;;;;;;;;;;;;;;;;;5023141;28;20471;-66
2022/03/19 13:24:15;;;;;;;;;;;;;;;;;;5019550;28;19931;-66
2022/03/19 13:26:42;;;;;;;;;;;;;;;;;;5017058;28;20382;-67
2022/03/19 13:29:08;;;;;;;;;;;;;;;;;;5021253;28;19959;-70
2022/03/19 13:31:34;;;;;;;;;;;;;;;;;;5020956;28;19975;-66
2022/03/19 13:34:00;;;;;;;;;;;;;;;;;;5008753;28;20437;-66
2022/03/19 13:36:27;;;;;;;;;;;;;;;;;;5021434;28;19920;-66
2022/03/19 13:38:54;;;;;;;;;;;;;;;;;;5015229;28;19928;-66
2022/03/19 13:41:20;;;;;;;;;;;;;;;;;;5019264;28;20332;-66
2022/03/19 13:43:46;;;;;;;;;;;;;;;;;;5014448;28;20811;-66
2022/03/19 13:46:12;;;;;;;;;;;;;;;;;;5016345;28;19928;-66
2022/03/19 13:48:37;;;;;;;;;;;;;;;;;;5011358;28;19921;-67
2022/03/19 13:51:03;;;;;;;;;;;;;;;;;;5015428;28;19971;-67
2022/03/19 13:53:29;;;;;;;;;;;;;;;;;;5004755;28;19916;-66
2022/03/19 13:55:55;;;;;;;;;;;;;;;;;;5018408;28;19925;-69
2022/03/19 13:58:21;;;;;;;;;;;;;;;;;;5017090;28;19951;-67
2022/03/19 14:00:47;;;;;;;;;;;;;;;;;;5012586;28;19916;-67
2022/03/19 14:03:13;;;;;;;;;;;;;;;;;;5017373;28;20285;-67
2022/03/19 14:05:40;;;;;;;;;;;;;;;;;;5016716;28;19920;-67
2022/03/19 14:08:06;;;;;;;;;;;;;;;;;;5021889;28;19928;-67
2022/03/19 14:10:32;;;;;;;;;;;;;;;;;;5021837;28;19920;-67
2022/03/19 14:12:58;;;;;;;;;;;;;;;;;;5020741;28;19917;-67
2022/03/19 14:15:24;;;;;;;;;;;;;;;;;;5016647;28;20279;-67
2022/03/19 14:17:50;;;;;;;;;;;;;;;;;;5025314;28;19917;-67
2022/03/19 14:20:18;;;;;;;;;;;;;;;;;;5026623;28;19924;-66
2022/03/19 14:22:44;;;;;;;;;;;;;;;;;;5019605;28;20143;-67
2022/03/19 14:25:10;;;;;;;;;;;;;;;;;;5024566;28;19928;-67
2022/03/19 14:27:37;;;;;;;;;;;;;;;;;;5020409;28;19917;-67
2022/03/19 14:30:04;;;;;;;;;;;;;;;;;;5026714;28;20215;-67
2022/03/19 14:32:29;;;;;;;;;;;;;;;;;;5024463;28;19917;-66
2022/03/19 14:34:55;;;;;;;;;;;;;;;;;;5025128;28;19921;-67
2022/03/19 14:37:22;;;;;;;;;;;;;;;;;;5022093;28;19944;-67
2022/03/19 14:39:47;;;;;;;;;;;;;;;;;;5022530;28;19979;-67
2022/03/19 14:42:13;;;;;;;;;;;;;;;;;;5024391;28;20314;-67
2022/03/19 14:44:39;;;;;;;;;;;;;;;;;;5017457;28;20276;-67
2022/03/19 14:47:06;;;;;;;;;;;;;;;;;;5027172;28;19955;-67
2022/03/19 14:49:32;;;;;;;;;;;;;;;;;;5028983;28;19970;-66
2022/03/19 14:51:58;;;;;;;;;;;;;;;;;;5026885;28;20339;-68
2022/03/19 14:54:23;;;;;;;;;;;;;;;;;;5009904;28;19955;-67
2022/03/19 14:56:50;;;;;;;;;;;;;;;;;;5023373;28;19917;-67
2022/03/19 14:59:16;;;;;;;;;;;;;;;;;;5024483;28;19916;-68
2022/03/19 15:01:42;;;;;;;;;;;;;;;;;;5023702;28;19924;-68
2022/03/19 15:04:12;;;;;;;;;;;;;;;;;;5022824;28;20525;-68
2022/03/19 15:06:38;;;;;;;;;;;;;;;;;;5022225;28;19920;-67
2022/03/19 15:09:04;;;;;;;;;;;;;;;;;;5027084;28;19937;-67
2022/03/19 15:11:30;;;;;;;;;;;;;;;;;;5024074;28;20326;-67
2022/03/19 15:13:56;;;;;;;;;;;;;;;;;;5025130;28;20054;-67
2022/03/19 15:16:23;;;;;;;;;;;;;;;;;;5024311;28;20047;-67
2022/03/19 15:18:49;;;;;;;;;;;;;;;;;;5019933;28;20432;-67
2022/03/19 15:21:15;;;;;;;;;;;;;;;;;;5029470;28;19967;-67
2022/03/19 15:23:41;;;;;;;;;;;;;;;;;;5016984;28;19917;-67
2022/03/19 15:26:08;;;;;;;;;;;;;;;;;;5025599;28;19930;-68
2022/03/19 15:28:34;;;;;;;;;;;;;;;;;;5021236;28;19921;-67
2022/03/19 15:31:00;;;;;;;;;;;;;;;;;;5027440;28;19970;-67
2022/03/19 15:33:26;;;;;;;;;;;;;;;;;;5022453;28;19921;-66
2022/03/19 15:35:52;;;;;;;;;;;;;;;;;;5029842;28;19963;-66
2022/03/19 15:38:18;;;;;;;;;;;;;;;;;;5023230;28;19923;-66
2022/03/19 15:40:44;;;;;;;;;;;;;;;;;;5017509;28;20311;-67
2022/03/19 15:43:13;;;;;;;;;;;;;;;;;;5023662;28;19923;-67
2022/03/19 15:45:39;;;;;;;;;;;;;;;;;;5013437;28;19924;-68
2022/03/19 15:48:05;;;;;;;;;;;;;;;;;;5030585;28;19966;-67
2022/03/19 15:50:31;;;;;;;;;;;;;;;;;;5026883;28;20421;-67
2022/03/19 15:52:57;;;;;;;;;;;;;;;;;;5022507;28;19994;-67
2022/03/19 15:55:23;;;;;;;;;;;;;;;;;;5022710;28;19952;-67
2022/03/19 15:57:49;;;;;;;;;;;;;;;;;;5002653;28;19921;-67
2022/03/19 16:00:15;;;;;;;;;;;;;;;;;;5020600;28;19917;-67
2022/03/19 16:02:41;;;;;;;;;;;;;;;;;;5004867;28;20530;-67
2022/03/19 16:05:07;;;;;;;;;;;;;;;;;;5021294;28;20346;-67
2022/03/19 16:07:33;;;;;;;;;;;;;;;;;;5015434;28;19959;-67
2022/03/19 16:10:00;;;;;;;;;;;;;;;;;;5023428;28;19993;-67
2022/03/19 16:12:26;;;;;;;;;;;;;;;;;;5020275;28;19996;-67
2022/03/19 16:14:52;;;;;;;;;;;;;;;;;;5025621;28;20099;-67
2022/03/19 16:17:18;;;;;;;;;;;;;;;;;;5025780;28;19924;-67
2022/03/19 16:19:44;;;;;;;;;;;;;;;;;;5018208;28;19917;-67
2022/03/19 16:22:10;;;;;;;;;;;;;;;;;;5021318;28;19924;-67
2022/03/19 16:24:36;;;;;;;;;;;;;;;;;;5020566;28;20263;-66
2022/03/19 16:27:02;;;;;;;;;;;;;;;;;;5023405;28;19972;-67
2022/03/19 16:29:28;;;;;;;;;;;;;;;;;;5024948;28;19994;-66
2022/03/19 16:31:54;;;;;;;;;;;;;;;;;;5006207;28;20027;-66
2022/03/19 16:34:20;;;;;;;;;;;;;;;;;;5025109;28;19923;-66
2022/03/19 16:36:46;;;;;;;;;;;;;;;;;;5017863;28;20311;-67
2022/03/19 16:39:12;;;;;;;;;;;;;;;;;;5027163;28;19920;-68
2022/03/19 16:41:38;;;;;;;;;;;;;;;;;;5023419;28;20608;-67
2022/03/19 16:44:04;;;;;;;;;;;;;;;;;;5027432;28;20377;-66
2022/03/19 16:46:30;;;;;;;;;;;;;;;;;;5019125;28;19917;-67
2022/03/19 16:48:56;;;;;;;;;;;;;;;;;;5023069;28;19917;-67
2022/03/19 16:51:22;;;;;;;;;;;;;;;;;;5022550;28;20619;-67
2022/03/19 16:53:48;;;;;;;;;;;;;;;;;;5006860;28;19924;-67
2022/03/19 16:56:14;;;;;;;;;;;;;;;;;;5024234;28;19940;-67